Time;durP1;ratioP1;P1;durP2;ratioP2;P2;SDS_P1;SDS_P2;PMS_P1;PMS_P2;Temp;Humidity;BMP_temperature;BMP_pressure;BME280_temperature;BME280_humidity;BME280_pressure;Samples;Min_cycle;Max_cycle;Signal;HPM_P1;HPM_P2
2022/11/11 00:00:37;;;;;;;29.70;14.27;;;;;;;9.23;68.50;100292.34;6100205;23;20022;-80
2022/11/11 00:03:21;;;;;;;33.53;14.38;;;;;;;9.32;69.02;100310.56;6099879;23;20029;-82
2022/11/11 00:06:10;;;;;;;30.45;14.07;;;;;;;9.16;68.92;100281.03;6099307;23;20022;-80
2022/11/11 00:08:57;;;;;;;29.60;13.20;;;;;;;9.33;68.67;100315.78;6098724;23;20073;-80
2022/11/11 00:15:39;;;;;;;29.27;13.65;;;;;;;9.24;68.56;100284.56;6099306;23;20022;-80
2022/11/11 00:27:40;;;;;;;33.13;13.90;;;;;;;8.81;68.90;100248.00;6075343;23;20029;-79
2022/11/11 00:30:25;;;;;;;30.58;14.25;;;;;;;9.15;69.32;100293.16;6073556;23;20022;-80
2022/11/11 00:33:19;;;;;;;32.35;15.15;;;;;;;8.96;69.44;100268.84;6076189;23;20022;-80
2022/11/11 00:36:09;;;;;;;32.03;15.55;;;;;;;8.95;69.45;100255.88;6097192;23;20022;-80
2022/11/11 00:38:54;;;;;;;29.50;14.52;;;;;;;9.03;69.77;100270.59;6096738;23;20021;-81
2022/11/11 00:41:38;;;;;;;34.85;14.55;;;;;;;9.02;70.02;100261.09;6070958;23;20065;-80
2022/11/11 00:44:23;;;;;;;30.23;14.50;;;;;;;9.01;70.03;100261.94;6075259;23;20028;-78
2022/11/11 00:53:31;;;;;;;29.88;14.23;;;;;;;9.19;69.90;100296.63;6097347;23;20551;-79
2022/11/11 00:56:16;;;;;;;30.50;14.15;;;;;;;8.98;69.88;100261.94;6091693;23;20022;-82
2022/11/11 00:59:08;;;;;;;25.92;13.10;;;;;;;9.15;69.96;100282.78;6099273;23;20021;-80
2022/11/11 01:01:53;;;;;;;27.38;13.35;;;;;;;9.01;70.29;100246.38;6119875;23;20082;-79
2022/11/11 01:04:38;;;;;;;28.67;13.57;;;;;;;9.07;69.88;100247.25;6043334;23;20049;-82
2022/11/11 01:07:22;;;;;;;27.50;13.07;;;;;;;9.28;69.66;100286.31;6089440;23;20022;-81
2022/11/11 01:10:08;;;;;;;29.58;13.70;;;;;;;8.96;69.65;100240.28;6107203;23;20022;-81
2022/11/11 01:13:10;;;;;;;29.58;13.93;;;;;;;8.84;69.81;100230.69;6100756;23;20018;-79
2022/11/11 01:16:04;;;;;;;26.25;12.82;;;;;;;8.95;69.80;100248.94;6090138;23;20022;-80
2022/11/11 01:18:50;;;;;;;26.52;13.00;;;;;;;9.10;70.09;100281.88;6072576;23;20018;-79
2022/11/11 01:21:35;;;;;;;33.25;14.02;;;;;;;9.08;70.20;100277.56;6101387;23;20033;-79
2022/11/11 01:24:19;;;;;;;33.03;14.02;;;;;;;8.77;70.04;100228.06;6068585;23;20425;-80
2022/11/11 01:27:04;;;;;;;27.33;13.15;;;;;;;8.98;70.36;100282.69;6071148;23;20022;-79
2022/11/11 01:29:49;;;;;;;31.70;13.98;;;;;;;8.91;70.96;100261.88;6074580;23;20150;-79
2022/11/11 01:32:34;;;;;;;31.15;14.05;;;;;;;8.85;70.69;100265.31;6072456;23;20030;-80
2022/11/11 01:35:18;;;;;;;27.05;13.55;;;;;;;8.78;70.78;100269.63;6097204;23;20022;-81
2022/11/11 01:38:07;;;;;;;26.48;13.57;;;;;;;8.71;71.03;100247.97;6074311;23;20011;-79
2022/11/11 01:40:52;;;;;;;29.13;13.95;;;;;;;8.68;70.77;100257.44;6070939;23;20530;-79
2022/11/11 01:43:39;;;;;;;27.20;12.90;;;;;;;8.63;71.34;100244.44;6071714;23;20480;-80
2022/11/11 01:46:29;;;;;;;29.50;14.18;;;;;;;8.22;71.42;100181.03;6074348;23;20029;-81
2022/11/11 01:49:33;;;;;;;26.25;12.20;;;;;;;8.72;71.27;100257.44;6073846;23;20032;-80
2022/11/11 01:52:31;;;;;;;31.77;13.40;;;;;;;8.92;71.59;100292.19;6104725;23;20072;-78
2022/11/11 01:55:20;;;;;;;30.40;12.52;;;;;;;8.90;71.71;100287.00;6078930;23;20028;-80
2022/11/11 01:58:14;;;;;;;25.90;12.57;;;;;;;8.80;71.57;100267.03;6074993;23;20073;-81
2022/11/11 02:00:59;;;;;;;25.48;13.50;;;;;;;8.65;71.70;100242.72;6101286;23;20029;-79
2022/11/11 02:05:41;;;;;;;29.08;12.93;;;;;;;8.87;71.88;100286.97;6074817;23;20460;-79
2022/11/11 02:06:56;;;;;;;23.80;12.75;;;;;;;8.91;71.85;100290.44;6105284;23;20022;-80
2022/11/11 02:09:45;;;;;;;24.95;11.82;;;;;;;8.91;72.57;100287.84;6071736;23;20053;-79
2022/11/11 02:15:53;;;;;;;24.85;11.35;;;;;;;8.84;72.29;100290.41;6099897;23;20038;-80
2022/11/11 02:18:38;;;;;;;23.23;11.80;;;;;;;8.55;72.00;100236.63;6097129;23;20026;-80
2022/11/11 02:21:50;;;;;;;23.30;10.88;;;;;;;8.63;72.30;100253.94;6095179;23;20024;-80
2022/11/11 02:24:36;;;;;;;23.73;11.60;;;;;;;8.11;72.42;100180.09;6078321;23;20019;-80
2022/11/11 02:27:30;;;;;;;24.55;11.80;;;;;;;8.72;72.72;100291.19;6076612;23;20101;-81
2022/11/11 02:30:36;;;;;;;22.35;10.95;;;;;;;8.69;72.70;100286.00;6102978;23;20025;-81
2022/11/11 02:33:20;;;;;;;21.08;10.77;;;;;;;8.31;72.65;100226.91;6101833;23;20014;-80
2022/11/11 02:36:10;;;;;;;22.58;10.50;;;;;;;8.65;72.82;100289.44;6085061;23;20119;-80
2022/11/11 02:38:55;;;;;;;23.77;12.00;;;;;;;8.59;72.88;100273.81;6059697;23;20090;-80
2022/11/11 02:41:56;;;;;;;24.73;11.90;;;;;;;8.69;73.40;100279.94;6102452;23;20030;-80
2022/11/11 02:44:40;;;;;;;22.15;11.18;;;;;;;8.50;73.23;100259.06;6099290;23;20044;-80
2022/11/11 02:47:26;;;;;;;21.88;11.20;;;;;;;8.69;73.37;100283.41;6051788;23;20029;-80
2022/11/11 02:50:10;;;;;;;24.33;11.45;;;;;;;8.66;73.08;100280.78;6096282;23;20018;-79
2022/11/11 02:52:55;;;;;;;18.95;10.43;;;;;;;8.66;73.25;100274.72;6072064;23;20053;-79
2022/11/11 02:55:39;;;;;;;21.20;10.60;;;;;;;8.51;73.37;100258.19;6051814;23;20018;-80
2022/11/11 02:58:23;;;;;;;19.13;9.73;;;;;;;8.69;73.64;100279.94;6101316;23;20021;-79
2022/11/11 03:01:08;;;;;;;20.60;10.15;;;;;;;8.69;73.45;100291.19;6072417;23;20132;-80
2022/11/11 03:03:53;;;;;;;20.77;9.60;;;;;;;8.70;73.55;100271.28;6097467;23;20018;-81
2022/11/11 03:06:38;;;;;;;19.17;9.80;;;;;;;8.72;73.49;100286.00;6075614;23;20018;-80
2022/11/11 03:09:22;;;;;;;19.75;9.77;;;;;;;8.74;73.58;100280.84;6076287;23;20018;-79
2022/11/11 03:12:07;;;;;;;18.70;9.95;;;;;;;8.76;73.44;100276.53;6098247;23;20022;-79
2022/11/11 03:14:54;;;;;;;18.25;9.75;;;;;;;8.61;73.76;100251.34;6071719;23;20030;-79
2022/11/11 03:17:38;;;;;;;17.85;9.93;;;;;;;8.69;73.70;100259.16;6060266;23;20041;-82
2022/11/11 03:23:26;;;;;;;20.17;9.40;;;;;;;8.88;74.18;100275.72;6078525;23;20049;-79
2022/11/11 03:26:10;;;;;;;15.02;9.00;;;;;;;8.81;74.02;100264.44;6076452;23;20082;-82
2022/11/11 03:28:55;;;;;;;17.98;8.65;;;;;;;8.86;73.98;100269.66;6072038;23;20025;-78
2022/11/11 03:31:39;;;;;;;19.92;9.90;;;;;;;8.75;73.75;100238.47;6075519;23;20029;-80
2022/11/11 03:34:24;;;;;;;16.15;9.15;;;;;;;8.96;73.57;100287.00;6052105;23;20069;-80
2022/11/11 03:40:14;;;;;;;18.05;8.95;;;;;;;8.96;74.10;100288.75;6071592;23;20022;-81
2022/11/11 03:42:59;;;;;;;18.30;9.00;;;;;;;8.92;73.76;100295.66;6076297;23;20022;-79
2022/11/11 03:45:44;;;;;;;17.58;8.35;;;;;;;8.88;73.70;100286.09;6071940;23;20018;-80
2022/11/11 03:48:32;;;;;;;14.30;7.97;;;;;;;8.60;73.90;100247.00;6076180;23;20034;-84
2022/11/11 03:51:17;;;;;;;14.90;8.13;;;;;;;8.77;73.95;100291.25;6097759;23;20029;-79
2022/11/11 03:54:02;;;;;;;11.93;7.25;;;;;;;8.51;73.94;100239.16;6097933;23;20022;-80
2022/11/11 03:56:47;;;;;;;13.60;6.85;;;;;;;8.11;74.06;100177.50;6096223;23;20556;-82
2022/11/11 03:59:31;;;;;;;14.88;7.40;;;;;;;8.58;74.16;100264.28;6071843;23;20527;-80
2022/11/11 04:11:39;;;;;;;12.18;6.45;;;;;;;8.36;74.68;100237.31;6085286;23;20018;-83
2022/11/11 04:17:29;;;;;;;10.68;6.38;;;;;;;8.55;74.40;100293.69;6072692;23;20025;-84
2022/11/11 04:23:21;;;;;;;10.32;6.03;;;;;;;8.10;74.36;100220.69;6071812;23;20044;-81
2022/11/11 04:26:24;;;;;;;9.68;5.93;;;;;;;8.57;74.76;100311.84;6071964;23;20023;-82
2022/11/11 04:29:27;;;;;;;12.77;6.43;;;;;;;8.51;74.54;100316.97;6096719;23;20345;-82
2022/11/11 04:35:18;;;;;;;8.45;5.00;;;;;;;8.30;74.99;100287.38;6098682;23;20041;-80
2022/11/11 04:41:07;;;;;;;10.95;5.95;;;;;;;8.42;75.04;100321.22;6100176;23;20086;-80
2022/11/11 04:46:59;;;;;;;10.57;5.63;;;;;;;8.20;75.02;100312.38;6106089;23;20113;-85
2022/11/11 04:49:45;;;;;;;11.05;5.88;;;;;;;8.26;75.45;100328.00;6091295;23;20022;-85
2022/11/11 04:52:30;;;;;;;10.48;5.85;;;;;;;8.21;75.61;100340.03;6105347;23;20018;-85
2022/11/11 04:58:20;;;;;;;10.27;5.75;;;;;;;7.91;76.00;100314.69;6104414;23;20025;-84
2022/11/11 05:01:04;;;;;;;12.48;6.45;;;;;;;7.43;76.03;100229.56;6097469;23;20018;-82
2022/11/11 05:03:49;;;;;;;11.80;5.65;;;;;;;7.82;75.84;100308.56;6119967;23;20022;-83
2022/11/11 05:09:37;;;;;;;11.25;6.13;;;;;;;8.06;76.09;100343.34;6098473;23;20018;-84
2022/11/11 05:12:24;;;;;;;11.70;7.20;;;;;;;7.67;76.29;100274.72;6098111;23;20022;-83
2022/11/11 05:21:20;;;;;;;9.63;5.60;;;;;;;7.93;76.02;100310.38;6104812;23;20022;-84
2022/11/11 05:27:08;;;;;;;9.80;6.25;;;;;;;7.39;76.47;100220.06;6074609;23;20018;-85
2022/11/11 05:29:54;;;;;;;10.70;6.53;;;;;;;7.88;76.86;100302.56;6078331;23;20008;-84
2022/11/11 05:32:38;;;;;;;10.63;7.00;;;;;;;8.17;76.72;100334.81;6083273;23;20014;-82
2022/11/11 05:35:23;;;;;;;11.00;6.25;;;;;;;7.40;76.78;100206.22;6098623;23;20042;-84
2022/11/11 05:38:20;;;;;;;10.88;6.13;;;;;;;8.07;77.05;100287.19;6101539;23;20018;-82
2022/11/11 05:41:06;;;;;;;12.30;6.13;;;;;;;7.72;76.89;100228.16;6097613;23;20033;-82
2022/11/11 05:43:51;;;;;;;10.68;6.38;;;;;;;7.79;76.73;100233.41;6098877;23;20003;-85
2022/11/11 05:46:35;;;;;;;10.63;6.45;;;;;;;7.96;76.90;100262.03;6102576;23;20006;-84
2022/11/11 05:49:20;;;;;;;9.68;5.78;;;;;;;8.33;76.72;100317.69;6098317;23;20006;-85
2022/11/11 05:52:06;;;;;;;10.65;5.85;;;;;;;8.27;76.57;100313.31;6121502;23;20026;-83
2022/11/11 05:54:54;;;;;;;9.57;5.47;;;;;;;7.59;76.85;100181.38;6079013;23;20058;-82
2022/11/11 05:57:39;;;;;;;9.65;5.50;;;;;;;8.01;76.54;100263.81;6102306;23;20022;-84
2022/11/11 06:00:32;;;;;;;9.40;5.50;;;;;;;7.68;76.67;100209.09;6123290;23;20031;-82
2022/11/11 06:03:20;;;;;;;9.73;5.70;;;;;;;7.28;76.69;100155.22;6102321;23;20242;-84
2022/11/11 06:10:50;;;;;;;9.43;5.75;;;;;;;7.71;77.13;100222.09;6082154;23;20041;-85
2022/11/11 06:13:35;;;;;;;10.85;6.15;;;;;;;7.56;77.19;100202.06;6080277;23;20026;-84
2022/11/11 06:16:23;;;;;;;11.02;5.40;;;;;;;8.21;76.94;100292.50;6101457;23;20069;-82
2022/11/11 06:19:11;;;;;;;9.95;6.05;;;;;;;8.04;76.80;100269.91;6124435;23;20007;-83
2022/11/11 06:22:03;;;;;;;10.60;6.10;;;;;;;7.25;77.03;100155.19;6088829;23;20033;-83
2022/11/11 06:26:11;;;;;;;11.82;6.25;;;;;;;7.80;76.77;100231.66;6105349;23;20018;-83
2022/11/11 06:28:23;;;;;;;10.40;6.72;;;;;;;7.49;76.84;100189.94;6117567;23;20026;-84
2022/11/11 06:31:13;;;;;;;11.55;6.85;;;;;;;7.42;77.17;100185.53;6135400;23;20014;-82
2022/11/11 06:34:06;;;;;;;8.85;5.97;;;;;;;7.87;76.98;100235.16;6118678;23;20024;-82
2022/11/11 06:36:51;;;;;;;11.63;6.47;;;;;;;8.03;76.78;100273.34;6119851;23;20041;-84
2022/11/11 06:39:39;;;;;;;15.77;8.23;;;;;;;8.13;76.88;100285.53;6093606;23;20018;-80
2022/11/11 06:42:23;;;;;;;10.85;7.70;;;;;;;7.59;76.70;100193.50;6129614;23;20048;-83
2022/11/11 06:45:20;;;;;;;11.65;6.82;;;;;;;7.48;76.47;100176.09;6131911;23;20021;-84
2022/11/11 06:48:20;;;;;;;;;;;;;;;;;;;;;
2022/11/11 06:51:30;;;;;;;10.48;6.47;;;;;;;8.69;76.74;100374.22;6132272;23;20022;-84
2022/11/11 06:54:15;;;;;;;10.82;7.07;;;;;;;7.53;76.70;100182.22;6113494;23;20024;-82
2022/11/11 06:57:07;;;;;;;;;;;;;;;8.71;76.41;100385.47;6109740;23;20014;-84
2022/11/11 06:59:55;;;;;;;12.55;6.70;;;;;;;7.62;76.62;100215.09;6109663;23;19912;-83
2022/11/11 07:02:40;;;;;;;11.38;6.93;;;;;;;8.21;76.91;100301.16;6109342;23;20077;-82
2022/11/11 07:05:24;;;;;;;10.38;6.95;;;;;;;8.79;76.79;100410.59;6122530;23;20028;-82
2022/11/11 07:08:22;;;;;;;12.82;7.05;;;;;;;7.67;76.92;100212.53;6126908;23;20056;-83
2022/11/11 07:11:39;;;;;;;11.50;6.88;;;;;;;8.76;76.62;100385.50;6083834;23;20006;-82
2022/11/11 07:14:27;;;;;;;13.23;7.20;;;;;;;8.77;76.58;100392.44;6118019;23;20030;-83
2022/11/11 07:17:11;;;;;;;10.07;6.30;;;;;;;8.80;76.60;100394.19;6075547;23;20455;-81
2022/11/11 07:19:56;;;;;;;14.93;6.50;;;;;;;8.25;76.43;100302.06;6117519;23;20018;-85
2022/11/11 07:22:41;;;;;;;8.30;5.68;;;;;;;8.35;76.54;100315.97;6105337;23;20027;-81
2022/11/11 07:25:25;;;;;;;9.23;6.40;;;;;;;8.39;76.53;100326.38;6102465;23;20026;-82
2022/11/11 07:28:13;;;;;;;11.18;5.95;;;;;;;8.36;76.63;100322.91;6114917;23;20352;-83
2022/11/11 07:30:58;;;;;;;14.18;6.45;;;;;;;7.81;76.68;100208.38;6086915;23;20018;-85
2022/11/11 07:33:43;;;;;;;10.30;5.60;;;;;;;8.64;76.04;100368.13;6062299;23;20104;-81
2022/11/11 07:36:27;;;;;;;10.48;5.80;;;;;;;8.72;76.77;100374.22;6080416;23;20018;-81
2022/11/11 07:39:18;;;;;;;9.93;5.60;;;;;;;8.43;76.23;100333.34;6053423;23;20046;-85
2022/11/11 07:42:03;;;;;;;10.00;5.55;;;;;;;8.59;76.59;100362.91;6077862;23;20026;-83
2022/11/11 07:44:47;;;;;;;12.48;6.38;;;;;;;7.88;76.40;100244.69;6052563;23;20365;-82
2022/11/11 07:47:33;;;;;;;10.05;5.95;;;;;;;8.90;76.42;100403.78;6059177;23;20018;-83
2022/11/11 07:50:22;;;;;;;10.73;5.72;;;;;;;8.91;76.58;100399.44;6107610;23;20027;-82
2022/11/11 07:53:27;;;;;;;10.38;6.00;;;;;;;8.71;76.23;100372.50;6107180;23;20025;-82
2022/11/11 07:56:12;;;;;;;10.00;5.97;;;;;;;8.58;76.37;100348.19;6083099;23;20022;-82
2022/11/11 07:58:59;;;;;;;12.55;6.78;;;;;;;8.95;76.18;100415.03;6087397;23;20022;-83
2022/11/11 08:01:47;;;;;;;9.30;5.40;;;;;;;8.40;76.17;100316.84;6083768;23;20482;-83
2022/11/11 08:04:34;;;;;;;10.27;5.90;;;;;;;8.25;76.22;100312.44;6112312;23;20026;-81
2022/11/11 08:07:18;;;;;;;15.48;7.93;;;;;;;8.29;76.40;100304.69;6111797;23;20044;-82
2022/11/11 08:10:07;;;;;;;14.88;8.35;;;;;;;8.76;76.33;100397.59;6093104;23;20018;-82
2022/11/11 08:16:14;;;;;;;13.25;6.75;;;;;;;8.24;76.20;100295.13;6076066;23;20128;-81
2022/11/11 08:18:59;;;;;;;12.98;6.10;;;;;;;8.20;75.86;100298.56;6081054;23;20578;-84
2022/11/11 08:21:44;;;;;;;13.32;7.55;;;;;;;8.97;76.48;100415.94;6054843;23;20026;-84
2022/11/11 08:24:32;;;;;;;16.90;7.45;;;;;;;8.94;75.86;100407.25;6101938;23;20025;-80
2022/11/11 08:27:18;;;;;;;11.57;7.22;;;;;;;8.77;75.70;100378.56;6076617;23;20105;-82
2022/11/11 08:30:05;;;;;;;17.55;7.90;;;;;;;8.65;75.91;100363.78;6104701;23;20101;-81
2022/11/11 08:33:01;;;;;;;16.30;9.90;;;;;;;9.01;76.14;100415.09;6099911;23;20022;-81
2022/11/11 08:35:46;;;;;;;13.30;6.57;;;;;;;8.96;76.12;100385.63;6082596;23;20018;-82
2022/11/11 08:38:31;;;;;;;12.77;6.63;;;;;;;8.59;75.96;100326.59;6110619;23;20107;-82
2022/11/11 08:41:17;;;;;;;9.80;5.60;;;;;;;8.96;76.01;100390.81;6079658;23;20024;-81
2022/11/11 08:44:03;;;;;;;9.52;5.15;;;;;;;9.06;76.06;100399.56;6076310;23;20021;-81
2022/11/11 08:46:48;;;;;;;9.52;5.88;;;;;;;8.78;75.83;100351.78;6097405;23;20023;-82
2022/11/11 08:49:35;;;;;;;10.20;6.10;;;;;;;8.69;75.87;100327.50;6051759;23;20025;-81
2022/11/11 08:52:20;;;;;;;10.90;5.47;;;;;;;9.18;75.90;100399.66;6076402;23;20022;-81
2022/11/11 08:55:07;;;;;;;10.40;5.68;;;;;;;8.72;75.85;100301.56;6078261;23;20022;-82
2022/11/11 08:57:59;;;;;;;11.05;6.13;;;;;;;9.17;75.35;100376.25;6097337;23;20442;-80
2022/11/11 09:00:44;;;;;;;;;;;;;;;9.31;75.58;100389.31;6059090;23;20042;-80
2022/11/11 09:03:38;;;;;;;9.65;5.80;;;;;;;9.32;75.48;100385.88;6091328;23;19917;-82
2022/11/11 09:06:27;;;;;;;8.10;4.82;;;;;;;9.05;76.02;100332.91;6062637;23;20497;-81
2022/11/11 09:09:11;;;;;;;12.18;6.45;;;;;;;9.38;75.49;100372.06;6074998;23;20029;-84
2022/11/11 09:11:56;;;;;;;13.23;7.55;;;;;;;9.14;75.20;100340.75;6070924;23;20018;-81
2022/11/11 09:14:41;;;;;;;12.13;5.97;;;;;;;8.93;75.51;100293.91;6039805;23;20080;-81
2022/11/11 09:17:26;;;;;;;10.07;6.05;;;;;;;9.54;75.27;100391.16;6076202;23;20101;-80
2022/11/11 09:20:11;;;;;;;8.45;5.38;;;;;;;9.32;75.09;100354.69;6096382;23;21062;-86
2022/11/11 09:22:56;;;;;;;10.57;6.00;;;;;;;9.38;74.75;100364.28;6071520;23;20045;-83
2022/11/11 09:25:41;;;;;;;13.57;6.60;;;;;;;9.25;74.80;100346.00;6055612;23;20174;-83
2022/11/11 09:28:25;;;;;;;12.32;7.80;;;;;;;8.77;74.78;100291.25;6097035;23;20018;-84
2022/11/11 09:31:10;;;;;;;11.60;6.97;;;;;;;9.43;74.48;100371.22;6096475;23;20018;-86
2022/11/11 09:33:54;;;;;;;12.32;6.22;;;;;;;9.34;74.61;100343.47;6075713;23;20018;-82
2022/11/11 09:36:39;;;;;;;10.68;6.80;;;;;;;9.39;74.37;100342.59;6071783;23;20464;-84
2022/11/11 09:39:24;;;;;;;13.02;7.78;;;;;;;9.44;74.42;100359.09;6100468;23;20050;-82
2022/11/11 09:42:16;;;;;;;9.52;6.38;;;;;;;9.73;74.17;100398.19;6077491;23;20033;-81
2022/11/11 09:45:19;;;;;;;10.90;6.45;;;;;;;9.76;74.38;100406.00;6051078;23;20044;-80
2022/11/11 09:48:36;;;;;;;9.95;5.97;;;;;;;9.78;74.24;100406.88;6092533;23;20015;-81
2022/11/11 09:51:47;;;;;;;10.50;6.18;;;;;;;9.49;74.22;100359.97;6070748;23;20059;-82
2022/11/11 09:54:47;;;;;;;9.07;5.55;;;;;;;9.89;74.09;100413.88;6074858;23;20022;-86
2022/11/11 09:57:37;;;;;;;10.88;5.65;;;;;;;9.92;73.96;100417.34;6097231;23;20018;-82
2022/11/11 10:00:32;;;;;;;8.20;5.70;;;;;;;9.75;73.74;100387.81;6051528;23;20026;-80
2022/11/11 10:03:22;;;;;;;9.88;5.38;;;;;;;9.91;73.83;100420.78;6076027;23;20042;-83
2022/11/11 10:06:31;;;;;;;8.68;5.10;;;;;;;9.64;73.43;100370.44;6070242;23;20019;-81
2022/11/11 10:09:35;;;;;;;6.72;4.70;;;;;;;9.75;73.64;100386.06;6095978;23;20041;-83
2022/11/11 10:12:43;;;;;;;7.78;5.03;;;;;;;9.30;73.10;100301.88;6096587;23;20061;-82
2022/11/11 10:15:49;;;;;;;9.93;6.07;;;;;;;9.57;72.90;100342.72;6101826;23;20029;-80
2022/11/11 10:18:54;;;;;;;9.35;4.95;;;;;;;9.97;72.96;100411.28;6098408;23;20070;-81
2022/11/11 10:21:49;;;;;;;7.18;4.75;;;;;;;9.27;73.01;100301.91;6086839;23;20022;-83
2022/11/11 10:24:49;;;;;;;;;;;;;;;9.98;72.74;100398.28;6098735;23;20106;-81
2022/11/11 10:27:34;;;;;;;6.93;4.60;;;;;;;9.99;72.96;100407.81;6098476;23;19917;-80
2022/11/11 10:30:30;;;;;;;5.82;4.32;;;;;;;9.64;72.67;100339.25;6118305;23;20393;-83
2022/11/11 10:33:25;;;;;;;5.95;4.30;;;;;;;9.83;72.58;100382.63;6095843;23;19998;-83
2022/11/11 10:36:19;;;;;;;5.95;4.05;;;;;;;9.42;72.79;100324.44;6064299;23;20023;-80
2022/11/11 10:39:05;;;;;;;6.13;4.28;;;;;;;9.85;72.88;100406.91;6115617;23;20014;-82
2022/11/11 10:41:53;;;;;;;7.07;4.80;;;;;;;9.85;72.62;100423.34;6099505;23;20019;-83
2022/11/11 10:44:41;;;;;;;5.43;4.28;;;;;;;9.91;72.32;100444.19;6096574;23;20019;-80
2022/11/11 10:48:41;;;;;;;7.75;4.07;;;;;;;9.90;72.61;100446.81;6054514;23;20074;-83
2022/11/11 10:51:30;;;;;;;6.75;4.10;;;;;;;9.88;72.20;100454.56;5983181;23;20110;-80
2022/11/11 10:54:40;;;;;;;6.88;4.53;;;;;;;9.88;72.52;100454.56;5988756;23;20020;-81
2022/11/11 10:57:29;;;;;;;8.68;5.38;;;;;;;9.94;72.49;100453.72;6011920;23;20051;-82
2022/11/11 11:00:14;;;;;;;8.73;5.75;;;;;;;9.96;72.31;100457.19;6013428;23;20059;-82
2022/11/11 11:03:13;;;;;;;9.43;5.97;;;;;;;9.69;72.47;100416.38;6019581;23;20027;-82
2022/11/11 11:06:06;;;;;;;8.95;6.35;;;;;;;10.00;72.25;100452.91;6016632;23;20050;-83
2022/11/11 11:09:01;;;;;;;8.32;5.57;;;;;;;9.90;72.55;100444.19;6018322;23;20054;-84
2022/11/11 11:11:58;;;;;;;9.68;5.35;;;;;;;9.93;72.44;100446.81;5998944;23;20024;-84
2022/11/11 11:14:47;;;;;;;8.45;6.22;;;;;;;9.56;72.25;100399.84;6015776;23;20043;-83
2022/11/11 11:17:39;;;;;;;11.55;6.45;;;;;;;9.57;72.36;100399.88;6015067;23;20101;-81
2022/11/11 11:20:24;;;;;;;9.05;5.35;;;;;;;9.44;72.51;100398.06;6014988;23;20027;-84
2022/11/11 11:23:38;;;;;;;9.48;6.15;;;;;;;9.79;72.30;100480.53;6069388;23;20085;-80
2022/11/11 11:26:50;;;;;;;9.77;5.80;;;;;;;9.45;72.51;100407.59;6077960;23;20042;-80
2022/11/11 11:29:41;;;;;;;8.57;5.35;;;;;;;9.53;72.17;100428.41;6054280;23;20050;-83
2022/11/11 11:32:32;;;;;;;8.73;5.07;;;;;;;9.63;72.34;100427.59;6102218;23;20057;-81
2022/11/11 11:35:43;;;;;;;7.85;5.13;;;;;;;9.85;72.53;100467.56;6102976;23;20034;-79
2022/11/11 11:38:49;;;;;;;7.15;4.97;;;;;;;9.84;71.90;100477.97;6113859;23;20075;-84
2022/11/11 11:41:49;;;;;;;10.32;4.93;;;;;;;9.69;72.29;100458.84;6081170;23;20022;-78
2022/11/11 11:44:35;;;;;;;12.75;5.22;;;;;;;9.75;72.39;100473.59;6072423;23;20643;-80
2022/11/11 11:47:58;;;;;;;9.68;6.00;;;;;;;9.76;72.04;100477.91;6096630;23;20026;-79
2022/11/11 11:50:50;;;;;;;10.05;5.72;;;;;;;9.61;72.06;100456.16;6095557;23;20337;-77
2022/11/11 11:53:44;;;;;;;10.55;5.95;;;;;;;9.58;71.98;100458.78;6097006;23;20022;-79
2022/11/11 11:56:31;;;;;;;9.13;6.07;;;;;;;9.74;72.17;100479.63;6096788;23;20487;-81
2022/11/11 11:59:36;;;;;;;10.38;6.13;;;;;;;9.69;72.82;100447.56;6052880;23;20018;-79
2022/11/11 12:02:58;;;;;;;9.55;5.65;;;;;;;9.93;72.27;100470.22;6029984;23;20019;-82
2022/11/11 12:06:07;;;;;;;9.15;5.40;;;;;;;9.50;72.60;100408.50;6075259;23;20089;-82
2022/11/11 12:08:52;;;;;;;13.57;6.47;;;;;;;9.95;72.69;100469.34;6053132;23;20029;-83
2022/11/11 12:11:55;;;;;;;10.25;6.03;;;;;;;9.73;71.78;100434.56;6093690;23;20157;-82
2022/11/11 12:14:52;;;;;;;10.13;6.05;;;;;;;9.92;71.88;100466.72;6102576;23;20026;-83
2022/11/11 12:17:39;;;;;;;10.98;6.10;;;;;;;9.87;72.08;100452.84;6071782;23;20014;-82
2022/11/11 12:20:33;;;;;;;13.27;6.88;;;;;;;9.93;72.20;100473.66;6097580;23;20025;-83
2022/11/11 12:24:15;;;;;;;;;;;;;;;;;;;;;
2022/11/11 12:27:38;;;;;;;10.70;6.57;;;;;;;8.56;72.11;100237.47;6096770;23;20019;-86
2022/11/11 12:31:09;;;;;;;11.05;6.28;;;;;;;9.91;72.10;100467.59;6051725;23;20162;-81
2022/11/11 12:34:22;;;;;;;10.77;6.47;;;;;;;9.88;72.17;100469.31;6080212;23;20079;-83
2022/11/11 12:37:36;;;;;;;13.32;6.90;;;;;;;9.44;72.39;100390.25;6076945;23;20014;-82
2022/11/11 12:41:07;;;;;;;9.60;6.55;;;;;;;9.87;72.23;100452.84;6088824;23;20022;-80
2022/11/11 12:43:58;;;;;;;12.50;7.57;;;;;;;9.89;72.33;100450.25;6096438;23;20045;-80
2022/11/11 12:47:20;;;;;;;12.35;6.95;;;;;;;9.77;72.60;100430.28;6098691;23;20409;-83
2022/11/11 12:51:02;;;;;;;11.98;6.50;;;;;;;9.89;72.10;100450.25;6067993;23;20030;-80
2022/11/11 12:54:23;;;;;;;11.23;5.57;;;;;;;9.12;72.13;100328.66;6099792;23;20029;-81
2022/11/11 12:57:24;;;;;;;8.40;5.55;;;;;;;9.83;72.64;100453.69;6049806;23;20056;-81
2022/11/11 13:00:31;;;;;;;10.70;6.10;;;;;;;9.71;72.22;100441.50;6096671;23;20046;-77
2022/11/11 13:04:21;;;;;;;11.85;6.78;;;;;;;9.16;72.48;100338.16;6100161;23;20018;-80
2022/11/11 13:08:15;;;;;;;11.40;6.43;;;;;;;9.87;72.49;100457.19;5997988;23;20088;-84
2022/11/11 13:11:38;;;;;;;13.50;6.72;;;;;;;9.87;72.28;100452.84;6065366;23;20030;-81
2022/11/11 13:14:50;;;;;;;11.00;6.00;;;;;;;9.89;72.49;100450.25;6084480;23;20014;-84
2022/11/11 13:17:53;;;;;;;12.30;7.03;;;;;;;9.15;72.60;100347.69;6099209;23;20038;-83
2022/11/11 13:21:15;;;;;;;10.70;7.18;;;;;;;9.85;72.58;100448.50;6107888;23;20018;-81
2022/11/11 13:24:05;;;;;;;13.43;8.00;;;;;;;9.87;72.43;100450.22;6062666;23;20360;-83
2022/11/11 13:26:58;;;;;;;13.45;7.50;;;;;;;9.46;72.83;100380.75;6059857;23;20074;-82
2022/11/11 13:30:10;;;;;;;12.88;6.88;;;;;;;9.54;72.49;100404.16;6106476;23;20085;-80
2022/11/11 13:33:14;;;;;;;9.52;5.30;;;;;;;9.77;72.65;100461.47;6097799;23;20025;-83
2022/11/11 13:36:23;;;;;;;7.97;5.20;;;;;;;9.72;72.74;100448.44;6073273;23;20014;-83
2022/11/11 13:39:27;;;;;;;9.55;5.68;;;;;;;9.48;72.41;100411.09;6074473;23;20023;-83
2022/11/11 13:42:33;;;;;;;10.77;5.80;;;;;;;9.52;72.73;100411.97;6057545;23;20053;-81
2022/11/11 13:45:47;;;;;;;7.35;5.13;;;;;;;9.32;72.85;100370.28;6078513;23;20025;-82
2022/11/11 13:48:46;;;;;;;10.82;6.80;;;;;;;9.76;73.13;100454.53;6071393;23;20023;-84
2022/11/11 13:51:42;;;;;;;13.52;6.55;;;;;;;9.09;72.76;100339.88;6101934;23;20022;-82
2022/11/11 13:54:47;;;;;;;12.35;6.60;;;;;;;9.36;72.78;100391.97;6104803;23;20030;-84
2022/11/11 13:57:49;;;;;;;9.27;5.85;;;;;;;9.13;72.70;100361.53;6098225;23;20022;-83
2022/11/11 14:00:38;;;;;;;8.85;5.85;;;;;;;9.12;72.62;100352.88;6077665;23;20116;-80
2022/11/11 14:03:52;;;;;;;7.85;5.30;;;;;;;9.94;72.92;100459.81;6057021;23;20015;-82
2022/11/11 14:06:57;;;;;;;9.07;5.65;;;;;;;10.02;72.88;100456.38;6113544;23;20014;-81
2022/11/11 14:09:53;;;;;;;7.57;5.10;;;;;;;9.74;72.29;100419.88;6077814;23;20022;-81
2022/11/11 14:13:31;;;;;;;7.40;4.60;;;;;;;9.97;72.04;100453.75;6104804;23;20058;-80
2022/11/11 14:20:54;;;;;;;8.82;4.30;;;;;;;9.82;72.01;100449.34;6104665;23;20534;-81
2022/11/11 14:24:05;;;;;;;7.10;4.47;;;;;;;8.47;72.43;100245.19;6088876;23;20452;-82
2022/11/11 14:28:22;;;;;;;10.77;5.32;;;;;;;8.47;72.36;100253.81;6091589;23;20091;-82
2022/11/11 14:31:11;;;;;;;7.10;4.43;;;;;;;9.79;72.36;100464.94;6027028;23;20024;-86
2022/11/11 14:39:49;;;;;;;8.30;4.65;;;;;;;9.84;71.98;100437.22;6122689;23;20090;-83
2022/11/11 14:43:52;;;;;;;7.07;4.65;;;;;;;9.63;71.88;100386.03;5950162;24;20020;-85
2022/11/11 14:47:01;;;;;;;6.88;4.85;;;;;;;9.89;71.44;100430.31;5943169;24;20047;-83
2022/11/11 14:49:54;;;;;;;12.00;4.55;;;;;;;9.45;71.57;100359.13;6083633;23;20476;-80
2022/11/11 14:52:43;;;;;;;7.10;4.30;;;;;;;9.72;71.53;100404.25;6081161;23;20045;-83
2022/11/11 14:55:41;;;;;;;8.52;4.18;;;;;;;9.29;71.33;100332.19;6110112;23;20018;-83
2022/11/11 14:58:40;;;;;;;7.57;4.80;;;;;;;9.57;71.62;100383.41;6088411;23;20014;-81
2022/11/11 15:01:25;;;;;;;9.93;4.50;;;;;;;9.88;71.34;100440.72;6101478;23;20313;-81